sensor_id;sensor_type;location;lat;lon;timestamp;P1;durP1;ratioP1;P2;durP2;ratioP2
14199;SDS011;7183;53.224;6.554;2022-10-28T13:20:42;17.88;;;7.05;;
14199;SDS011;7183;53.224;6.554;2022-10-28T13:23:18;15.68;;;5.78;;
14199;SDS011;7183;53.224;6.554;2022-10-28T13:25:53;19.80;;;6.88;;
14199;SDS011;7183;53.224;6.554;2022-10-28T16:19:00;16.52;;;6.75;;
14199;SDS011;7183;53.224;6.554;2022-10-28T16:21:33;14.38;;;7.57;;
14199;SDS011;7183;53.224;6.554;2022-10-28T16:24:01;16.48;;;7.18;;
14199;SDS011;7183;53.224;6.554;2022-10-28T16:26:29;19.37;;;7.73;;
14199;SDS011;7183;53.224;6.554;2022-10-28T16:28:57;15.80;;;7.20;;
14199;SDS011;7183;53.224;6.554;2022-10-28T16:31:25;20.90;;;7.47;;
14199;SDS011;7183;53.224;6.554;2022-10-28T16:33:54;19.83;;;7.22;;
14199;SDS011;7183;53.224;6.554;2022-10-28T16:36:24;16.63;;;7.28;;
14199;SDS011;7183;53.224;6.554;2022-10-28T16:38:52;19.85;;;7.50;;
14199;SDS011;7183;53.224;6.554;2022-10-28T16:41:19;15.70;;;7.37;;
14199;SDS011;7183;53.224;6.554;2022-10-28T16:43:46;18.75;;;8.15;;
14199;SDS011;7183;53.224;6.554;2022-10-28T16:46:14;20.98;;;7.68;;
14199;SDS011;7183;53.224;6.554;2022-10-28T16:48:41;19.95;;;8.63;;
14199;SDS011;7183;53.224;6.554;2022-10-28T16:51:10;15.82;;;6.95;;
14199;SDS011;7183;53.224;6.554;2022-10-28T16:53:40;17.05;;;7.53;;
14199;SDS011;7183;53.224;6.554;2022-10-28T16:56:11;15.20;;;7.13;;
14199;SDS011;7183;53.224;6.554;2022-10-28T16:58:38;19.02;;;7.70;;
14199;SDS011;7183;53.224;6.554;2022-10-28T17:01:06;20.63;;;7.72;;
14199;SDS011;7183;53.224;6.554;2022-10-28T17:03:34;19.60;;;7.23;;
14199;SDS011;7183;53.224;6.554;2022-10-28T17:06:01;19.38;;;7.43;;
14199;SDS011;7183;53.224;6.554;2022-10-28T17:08:28;16.00;;;7.43;;
14199;SDS011;7183;53.224;6.554;2022-10-28T17:10:57;17.95;;;7.05;;
14199;SDS011;7183;53.224;6.554;2022-10-28T17:24:36;15.57;;;6.85;;
14199;SDS011;7183;53.224;6.554;2022-10-28T17:27:04;18.83;;;7.40;;
14199;SDS011;7183;53.224;6.554;2022-10-28T17:29:32;15.80;;;6.75;;
14199;SDS011;7183;53.224;6.554;2022-10-28T17:31:59;15.70;;;7.32;;
14199;SDS011;7183;53.224;6.554;2022-10-28T17:34:27;17.13;;;7.43;;
14199;SDS011;7183;53.224;6.554;2022-10-28T17:36:54;17.77;;;7.50;;
14199;SDS011;7183;53.224;6.554;2022-10-28T17:39:21;21.25;;;7.30;;
14199;SDS011;7183;53.224;6.554;2022-10-28T17:41:49;23.35;;;8.20;;
14199;SDS011;7183;53.224;6.554;2022-10-28T17:44:16;17.35;;;6.72;;
14199;SDS011;7183;53.224;6.554;2022-10-28T17:46:43;14.73;;;7.28;;
14199;SDS011;7183;53.224;6.554;2022-10-28T17:49:12;20.02;;;6.95;;
14199;SDS011;7183;53.224;6.554;2022-10-28T17:51:40;21.03;;;7.37;;
14199;SDS011;7183;53.224;6.554;2022-10-28T17:54:07;16.27;;;6.60;;
14199;SDS011;7183;53.224;6.554;2022-10-28T17:56:34;19.27;;;7.32;;
14199;SDS011;7183;53.224;6.554;2022-10-28T17:59:04;16.35;;;6.35;;
14199;SDS011;7183;53.224;6.554;2022-10-28T18:01:32;16.08;;;6.78;;
14199;SDS011;7183;53.224;6.554;2022-10-28T18:04:00;16.77;;;6.53;;
14199;SDS011;7183;53.224;6.554;2022-10-28T18:06:28;19.98;;;6.95;;
14199;SDS011;7183;53.224;6.554;2022-10-28T18:08:55;17.13;;;6.13;;
14199;SDS011;7183;53.224;6.554;2022-10-28T18:11:23;14.38;;;5.78;;
14199;SDS011;7183;53.224;6.554;2022-10-28T18:13:51;22.90;;;7.10;;
14199;SDS011;7183;53.224;6.554;2022-10-28T18:16:22;17.63;;;6.70;;
14199;SDS011;7183;53.224;6.554;2022-10-28T18:18:52;17.85;;;5.97;;
14199;SDS011;7183;53.224;6.554;2022-10-28T18:21:19;16.83;;;6.32;;
14199;SDS011;7183;53.224;6.554;2022-10-28T18:23:51;20.17;;;6.60;;
14199;SDS011;7183;53.224;6.554;2022-10-28T18:26:27;16.93;;;6.40;;
14199;SDS011;7183;53.224;6.554;2022-10-28T18:28:55;16.83;;;6.93;;
14199;SDS011;7183;53.224;6.554;2022-10-28T18:31:23;16.67;;;6.38;;
14199;SDS011;7183;53.224;6.554;2022-10-28T18:33:51;16.42;;;5.82;;
14199;SDS011;7183;53.224;6.554;2022-10-28T18:36:19;17.17;;;5.70;;
14199;SDS011;7183;53.224;6.554;2022-10-28T18:38:47;17.35;;;6.75;;
14199;SDS011;7183;53.224;6.554;2022-10-28T18:41:15;15.27;;;6.47;;
14199;SDS011;7183;53.224;6.554;2022-10-28T18:43:44;21.20;;;6.03;;
14199;SDS011;7183;53.224;6.554;2022-10-28T18:46:11;16.48;;;6.15;;
14199;SDS011;7183;53.224;6.554;2022-10-28T18:48:40;16.17;;;6.27;;
14199;SDS011;7183;53.224;6.554;2022-10-28T18:51:08;19.80;;;6.87;;
14199;SDS011;7183;53.224;6.554;2022-10-28T18:53:38;16.73;;;5.70;;
14199;SDS011;7183;53.224;6.554;2022-10-28T18:56:07;20.83;;;6.30;;
14199;SDS011;7183;53.224;6.554;2022-10-28T18:58:36;20.20;;;6.60;;
14199;SDS011;7183;53.224;6.554;2022-10-28T19:01:04;16.85;;;6.55;;
14199;SDS011;7183;53.224;6.554;2022-10-28T19:03:32;17.13;;;6.17;;
14199;SDS011;7183;53.224;6.554;2022-10-28T19:06:01;17.93;;;5.97;;
14199;SDS011;7183;53.224;6.554;2022-10-28T19:08:29;19.33;;;5.93;;
14199;SDS011;7183;53.224;6.554;2022-10-28T19:10:56;20.20;;;5.40;;
14199;SDS011;7183;53.224;6.554;2022-10-28T19:13:24;18.20;;;5.43;;
14199;SDS011;7183;53.224;6.554;2022-10-28T19:15:52;22.00;;;5.60;;
14199;SDS011;7183;53.224;6.554;2022-10-28T19:18:19;19.97;;;5.60;;
14199;SDS011;7183;53.224;6.554;2022-10-28T19:20:46;25.23;;;6.13;;
14199;SDS011;7183;53.224;6.554;2022-10-28T19:23:16;19.67;;;5.60;;
14199;SDS011;7183;53.224;6.554;2022-10-28T19:25:52;13.33;;;5.10;;
14199;SDS011;7183;53.224;6.554;2022-10-28T19:28:19;20.80;;;5.07;;
14199;SDS011;7183;53.224;6.554;2022-10-28T19:30:47;21.67;;;5.40;;
14199;SDS011;7183;53.224;6.554;2022-10-28T19:33:18;19.53;;;5.43;;
14199;SDS011;7183;53.224;6.554;2022-10-28T19:35:45;23.23;;;5.20;;
14199;SDS011;7183;53.224;6.554;2022-10-28T19:38:12;19.27;;;5.67;;
14199;SDS011;7183;53.224;6.554;2022-10-28T19:40:41;18.27;;;6.28;;
14199;SDS011;7183;53.224;6.554;2022-10-28T19:43:08;19.77;;;6.30;;
14199;SDS011;7183;53.224;6.554;2022-10-28T19:45:35;18.53;;;5.27;;
14199;SDS011;7183;53.224;6.554;2022-10-28T19:48:02;18.30;;;4.93;;
14199;SDS011;7183;53.224;6.554;2022-10-28T19:50:29;23.47;;;5.77;;
14199;SDS011;7183;53.224;6.554;2022-10-28T19:52:56;23.98;;;5.63;;
14199;SDS011;7183;53.224;6.554;2022-10-28T19:55:24;26.47;;;6.10;;
14199;SDS011;7183;53.224;6.554;2022-10-28T19:57:52;19.23;;;6.00;;
14199;SDS011;7183;53.224;6.554;2022-10-28T20:00:19;19.77;;;5.93;;
14199;SDS011;7183;53.224;6.554;2022-10-28T20:02:47;17.10;;;5.87;;
14199;SDS011;7183;53.224;6.554;2022-10-28T20:05:14;18.30;;;5.43;;
14199;SDS011;7183;53.224;6.554;2022-10-28T20:07:41;18.10;;;5.00;;
14199;SDS011;7183;53.224;6.554;2022-10-28T20:10:08;27.50;;;6.67;;
14199;SDS011;7183;53.224;6.554;2022-10-28T20:12:35;17.00;;;5.77;;
14199;SDS011;7183;53.224;6.554;2022-10-28T20:15:05;20.50;;;6.10;;
14199;SDS011;7183;53.224;6.554;2022-10-28T20:17:33;16.33;;;5.33;;
14199;SDS011;7183;53.224;6.554;2022-10-28T20:20:00;20.10;;;5.93;;
14199;SDS011;7183;53.224;6.554;2022-10-28T20:22:27;18.60;;;5.47;;
14199;SDS011;7183;53.224;6.554;2022-10-28T20:24:54;14.80;;;4.77;;
14199;SDS011;7183;53.224;6.554;2022-10-28T20:27:21;19.93;;;5.97;;
14199;SDS011;7183;53.224;6.554;2022-10-28T20:29:48;15.97;;;5.40;;
14199;SDS011;7183;53.224;6.554;2022-10-28T20:32:17;16.30;;;5.70;;
14199;SDS011;7183;53.224;6.554;2022-10-28T20:34:46;19.33;;;5.50;;
14199;SDS011;7183;53.224;6.554;2022-10-28T20:37:13;18.40;;;6.00;;
14199;SDS011;7183;53.224;6.554;2022-10-28T20:39:40;21.07;;;5.70;;
14199;SDS011;7183;53.224;6.554;2022-10-28T20:42:07;24.53;;;6.00;;
14199;SDS011;7183;53.224;6.554;2022-10-28T20:44:34;19.70;;;5.37;;
14199;SDS011;7183;53.224;6.554;2022-10-28T20:47:01;22.00;;;6.00;;
14199;SDS011;7183;53.224;6.554;2022-10-28T20:49:30;18.83;;;5.40;;
14199;SDS011;7183;53.224;6.554;2022-10-28T20:51:57;18.13;;;5.53;;
14199;SDS011;7183;53.224;6.554;2022-10-28T20:54:24;15.37;;;5.47;;
14199;SDS011;7183;53.224;6.554;2022-10-28T20:56:52;15.73;;;5.57;;
14199;SDS011;7183;53.224;6.554;2022-10-28T20:59:19;23.30;;;5.80;;
14199;SDS011;7183;53.224;6.554;2022-10-28T21:01:46;16.80;;;5.10;;
14199;SDS011;7183;53.224;6.554;2022-10-28T21:04:15;19.13;;;5.17;;
14199;SDS011;7183;53.224;6.554;2022-10-28T21:06:43;15.13;;;5.07;;
14199;SDS011;7183;53.224;6.554;2022-10-28T21:09:11;17.03;;;5.03;;
14199;SDS011;7183;53.224;6.554;2022-10-28T21:11:38;14.27;;;5.10;;
14199;SDS011;7183;53.224;6.554;2022-10-28T21:14:05;16.47;;;6.10;;
14199;SDS011;7183;53.224;6.554;2022-10-28T21:16:32;17.80;;;5.60;;
14199;SDS011;7183;53.224;6.554;2022-10-28T21:18:59;18.47;;;4.80;;
14199;SDS011;7183;53.224;6.554;2022-10-28T21:21:27;12.10;;;4.50;;
14199;SDS011;7183;53.224;6.554;2022-10-28T21:23:56;15.30;;;5.00;;
14199;SDS011;7183;53.224;6.554;2022-10-28T21:26:23;18.80;;;5.50;;
14199;SDS011;7183;53.224;6.554;2022-10-28T21:28:51;16.13;;;5.00;;
14199;SDS011;7183;53.224;6.554;2022-10-28T21:31:19;15.63;;;5.30;;
14199;SDS011;7183;53.224;6.554;2022-10-28T21:33:46;14.93;;;5.33;;
14199;SDS011;7183;53.224;6.554;2022-10-28T21:36:15;18.20;;;6.10;;
14199;SDS011;7183;53.224;6.554;2022-10-28T21:38:43;14.30;;;4.77;;
14199;SDS011;7183;53.224;6.554;2022-10-28T21:41:12;20.53;;;4.77;;
14199;SDS011;7183;53.224;6.554;2022-10-28T21:43:41;14.53;;;4.67;;
14199;SDS011;7183;53.224;6.554;2022-10-28T21:46:09;13.90;;;4.90;;
14199;SDS011;7183;53.224;6.554;2022-10-28T21:48:36;13.07;;;4.70;;
14199;SDS011;7183;53.224;6.554;2022-10-28T21:51:05;13.80;;;5.00;;
14199;SDS011;7183;53.224;6.554;2022-10-28T21:53:34;19.23;;;5.30;;
14199;SDS011;7183;53.224;6.554;2022-10-28T21:56:02;17.90;;;5.53;;
14199;SDS011;7183;53.224;6.554;2022-10-28T21:58:31;13.43;;;4.90;;
14199;SDS011;7183;53.224;6.554;2022-10-28T22:01:01;19.57;;;5.50;;
14199;SDS011;7183;53.224;6.554;2022-10-28T22:03:29;14.50;;;4.60;;
14199;SDS011;7183;53.224;6.554;2022-10-28T22:05:56;13.47;;;4.90;;
14199;SDS011;7183;53.224;6.554;2022-10-28T22:08:23;18.13;;;5.57;;
14199;SDS011;7183;53.224;6.554;2022-10-28T22:10:56;17.67;;;5.10;;
14199;SDS011;7183;53.224;6.554;2022-10-28T22:13:25;16.17;;;4.80;;
14199;SDS011;7183;53.224;6.554;2022-10-28T22:15:57;16.37;;;4.73;;
14199;SDS011;7183;53.224;6.554;2022-10-28T22:18:25;27.10;;;5.83;;
14199;SDS011;7183;53.224;6.554;2022-10-28T22:20:53;9.40;;;4.33;;
14199;SDS011;7183;53.224;6.554;2022-10-28T22:23:20;15.87;;;5.17;;
14199;SDS011;7183;53.224;6.554;2022-10-28T22:25:47;17.97;;;5.20;;
14199;SDS011;7183;53.224;6.554;2022-10-28T22:28:14;11.63;;;4.53;;
14199;SDS011;7183;53.224;6.554;2022-10-28T22:30:41;14.60;;;5.07;;
14199;SDS011;7183;53.224;6.554;2022-10-28T22:33:10;16.87;;;5.47;;
14199;SDS011;7183;53.224;6.554;2022-10-28T22:35:37;10.57;;;5.20;;
14199;SDS011;7183;53.224;6.554;2022-10-28T22:38:04;14.93;;;4.77;;
14199;SDS011;7183;53.224;6.554;2022-10-28T22:40:31;18.90;;;5.70;;
14199;SDS011;7183;53.224;6.554;2022-10-28T22:42:58;18.70;;;5.90;;
14199;SDS011;7183;53.224;6.554;2022-10-28T22:45:25;17.67;;;4.57;;
14199;SDS011;7183;53.224;6.554;2022-10-28T22:47:52;9.40;;;3.70;;
14199;SDS011;7183;53.224;6.554;2022-10-28T22:50:21;14.43;;;4.83;;
14199;SDS011;7183;53.224;6.554;2022-10-28T22:52:48;14.87;;;4.23;;
14199;SDS011;7183;53.224;6.554;2022-10-28T22:55:16;18.67;;;4.67;;
14199;SDS011;7183;53.224;6.554;2022-10-28T22:57:43;16.47;;;4.83;;
14199;SDS011;7183;53.224;6.554;2022-10-28T23:00:11;15.03;;;4.40;;
14199;SDS011;7183;53.224;6.554;2022-10-28T23:02:38;15.43;;;5.63;;
14199;SDS011;7183;53.224;6.554;2022-10-28T23:05:06;15.80;;;4.77;;
14199;SDS011;7183;53.224;6.554;2022-10-28T23:07:35;17.93;;;4.93;;
14199;SDS011;7183;53.224;6.554;2022-10-28T23:10:02;13.67;;;4.40;;
14199;SDS011;7183;53.224;6.554;2022-10-28T23:12:29;16.43;;;5.13;;
14199;SDS011;7183;53.224;6.554;2022-10-28T23:14:56;17.37;;;4.90;;
14199;SDS011;7183;53.224;6.554;2022-10-28T23:17:24;17.83;;;4.90;;
14199;SDS011;7183;53.224;6.554;2022-10-28T23:19:51;13.50;;;4.67;;
14199;SDS011;7183;53.224;6.554;2022-10-28T23:22:18;15.13;;;4.70;;
14199;SDS011;7183;53.224;6.554;2022-10-28T23:24:46;9.77;;;3.80;;
14199;SDS011;7183;53.224;6.554;2022-10-28T23:27:13;18.30;;;4.67;;
14199;SDS011;7183;53.224;6.554;2022-10-28T23:29:40;17.60;;;5.07;;
14199;SDS011;7183;53.224;6.554;2022-10-28T23:32:07;14.50;;;4.97;;
14199;SDS011;7183;53.224;6.554;2022-10-28T23:34:35;18.20;;;4.67;;
14199;SDS011;7183;53.224;6.554;2022-10-28T23:37:02;12.33;;;3.93;;
14199;SDS011;7183;53.224;6.554;2022-10-28T23:39:29;12.13;;;4.03;;
14199;SDS011;7183;53.224;6.554;2022-10-28T23:41:57;14.07;;;4.73;;
14199;SDS011;7183;53.224;6.554;2022-10-28T23:44:24;13.40;;;4.80;;
14199;SDS011;7183;53.224;6.554;2022-10-28T23:46:52;23.80;;;6.10;;
14199;SDS011;7183;53.224;6.554;2022-10-28T23:49:19;12.00;;;4.63;;
14199;SDS011;7183;53.224;6.554;2022-10-28T23:51:46;9.30;;;3.83;;
14199;SDS011;7183;53.224;6.554;2022-10-28T23:54:13;11.73;;;4.43;;
14199;SDS011;7183;53.224;6.554;2022-10-28T23:56:40;12.53;;;4.87;;
14199;SDS011;7183;53.224;6.554;2022-10-28T23:59:08;11.60;;;5.17;;
